createdAt,value
2018-12-08T00:00:37.192Z,93.19
2018-12-08T00:03:07.741Z,92.94
2018-12-08T00:05:38.268Z,92.37
2018-12-08T00:08:08.817Z,92.24
2018-12-08T00:10:40.305Z,91.97
2018-12-08T00:13:10.817Z,91.76
2018-12-08T00:15:41.295Z,91.70
2018-12-08T00:18:11.809Z,91.71
2018-12-08T00:20:42.308Z,90.35
2018-12-08T00:23:12.779Z,89.45
2018-12-08T00:25:43.314Z,89.83
2018-12-08T00:28:13.860Z,88.85
2018-12-08T00:31:01.159Z,88.06
2018-12-08T00:33:31.625Z,87.89
2018-12-08T00:36:02.189Z,87.02
2018-12-08T00:38:32.725Z,85.96
2018-12-08T00:41:03.262Z,84.95
2018-12-08T00:43:33.807Z,85.45
2018-12-08T00:46:04.265Z,85.88
2018-12-08T00:48:34.727Z,84.93
2018-12-08T00:51:06.499Z,85.39
2018-12-08T00:53:37.003Z,84.13
2018-12-08T00:56:07.723Z,84.14
2018-12-08T00:58:39.356Z,84.20
2018-12-08T01:01:10.410Z,84.04
2018-12-08T01:03:41.268Z,84.39
2018-12-08T01:06:11.815Z,83.24
2018-12-08T01:08:42.465Z,84.29
2018-12-08T01:11:13.046Z,83.75
2018-12-08T01:13:43.558Z,82.77
2018-12-08T01:16:14.120Z,82.47
2018-12-08T01:18:44.688Z,82.38
2018-12-08T01:21:15.215Z,81.79
2018-12-08T01:23:45.843Z,81.14
2018-12-08T01:26:16.486Z,81.82
2018-12-08T01:28:47.007Z,81.15
2018-12-08T01:31:17.554Z,80.41
2018-12-08T01:33:48.083Z,80.47
2018-12-08T01:36:18.644Z,80.11
2018-12-08T01:38:49.153Z,79.90
2018-12-08T01:41:19.645Z,79.29
2018-12-08T01:43:50.177Z,80.12
2018-12-08T01:46:20.712Z,79.60
2018-12-08T01:48:51.261Z,80.12
2018-12-08T01:51:21.820Z,79.91
2018-12-08T01:53:52.352Z,79.78
2018-12-08T01:56:22.907Z,79.89
2018-12-08T01:58:53.682Z,79.58
2018-12-08T02:01:24.242Z,79.91
2018-12-08T02:03:54.782Z,79.36
2018-12-08T02:06:25.396Z,78.92
2018-12-08T02:08:55.916Z,78.71
2018-12-08T02:11:28.538Z,78.79
2018-12-08T02:13:59.101Z,78.65
2018-12-08T02:16:29.652Z,79.01
2018-12-08T02:19:00.180Z,80.05
2018-12-08T02:21:30.678Z,79.30
2018-12-08T02:24:01.213Z,79.24
2018-12-08T02:26:32.070Z,79.57
2018-12-08T02:29:02.616Z,80.56
2018-12-08T02:31:33.143Z,80.41
2018-12-08T02:34:03.686Z,80.13
2018-12-08T02:36:34.218Z,81.00
2018-12-08T02:39:06.712Z,81.13
2018-12-08T02:41:39.254Z,81.00
2018-12-08T02:44:09.803Z,81.31
2018-12-08T02:46:40.296Z,81.40
2018-12-08T02:49:10.809Z,82.11
2018-12-08T02:51:41.363Z,81.63
2018-12-08T02:54:11.951Z,81.43
2018-12-08T02:56:42.504Z,81.40
2018-12-08T02:59:12.994Z,81.31
2018-12-08T03:01:43.712Z,80.46
2018-12-08T03:04:14.270Z,80.66
2018-12-08T03:06:44.799Z,79.54
2018-12-08T03:09:15.447Z,79.95
2018-12-08T03:11:46.120Z,78.70
2018-12-08T03:14:16.637Z,78.67
2018-12-08T03:16:47.145Z,78.94
2018-12-08T03:19:17.635Z,78.54
2018-12-08T03:21:48.122Z,79.09
2018-12-08T03:24:18.658Z,78.72
2018-12-08T03:26:49.183Z,77.29
2018-12-08T03:29:19.813Z,77.96
2018-12-08T03:31:50.513Z,78.21
2018-12-08T03:34:21.156Z,78.69
2018-12-08T03:36:51.634Z,81.19
2018-12-08T03:39:22.165Z,81.76
2018-12-08T03:41:52.671Z,80.77
2018-12-08T03:44:23.153Z,80.65
2018-12-08T03:46:53.708Z,80.86
2018-12-08T03:49:24.181Z,80.07
2018-12-08T03:51:54.844Z,79.60
2018-12-08T03:54:25.335Z,80.77
2018-12-08T03:56:55.837Z,80.22
2018-12-08T03:59:26.486Z,79.10
2018-12-08T04:01:57.011Z,79.61
2018-12-08T04:04:27.550Z,79.58
2018-12-08T04:06:58.179Z,80.17
2018-12-08T04:09:28.777Z,80.21
2018-12-08T04:11:59.351Z,80.77
2018-12-08T04:14:29.926Z,82.17
2018-12-08T04:17:00.463Z,82.67
2018-12-08T04:19:30.981Z,82.20
2018-12-08T04:22:01.521Z,80.26
2018-12-08T04:24:35.069Z,78.46
2018-12-08T04:27:05.685Z,75.74
2018-12-08T04:29:36.173Z,74.48
2018-12-08T04:32:06.702Z,74.73
2018-12-08T04:34:37.200Z,74.43
2018-12-08T04:37:07.747Z,75.00
2018-12-08T04:39:38.225Z,74.78
2018-12-08T04:42:08.687Z,74.11
2018-12-08T04:44:39.219Z,74.63
2018-12-08T04:47:09.759Z,73.82
2018-12-08T04:49:40.245Z,74.63
2018-12-08T04:52:10.761Z,72.57
2018-12-08T04:54:41.387Z,73.53
2018-12-08T04:57:11.857Z,72.95
2018-12-08T04:59:42.429Z,73.79
2018-12-08T05:02:12.886Z,74.69
2018-12-08T05:04:43.644Z,74.86
2018-12-08T05:07:14.139Z,75.44
2018-12-08T05:09:44.659Z,76.41
2018-12-08T05:12:15.116Z,75.05
2018-12-08T05:14:45.673Z,74.42
2018-12-08T05:17:16.231Z,74.53
2018-12-08T05:19:46.780Z,73.80
2018-12-08T05:22:17.346Z,74.74
2018-12-08T05:24:47.937Z,73.97
2018-12-08T05:27:18.515Z,74.37
2018-12-08T05:29:49.298Z,75.90
2018-12-08T05:32:19.862Z,75.88
2018-12-08T05:34:50.422Z,75.52
2018-12-08T05:37:22.031Z,75.59
2018-12-08T05:39:52.587Z,75.44
2018-12-08T05:42:23.116Z,73.86
2018-12-08T05:44:53.605Z,73.18
2018-12-08T05:47:24.105Z,72.96
2018-12-08T05:49:54.904Z,73.70
2018-12-08T05:52:25.439Z,72.94
2018-12-08T05:54:56.024Z,71.55
2018-12-08T05:57:26.587Z,70.93
2018-12-08T05:59:57.098Z,69.57
2018-12-08T06:02:27.731Z,69.99
2018-12-08T06:04:58.396Z,69.54
2018-12-08T06:07:29.064Z,69.42
2018-12-08T06:09:59.572Z,69.29
2018-12-08T06:12:33.931Z,69.35
2018-12-08T06:15:04.453Z,69.30
2018-12-08T06:17:34.982Z,69.49
2018-12-08T06:20:06.238Z,69.15
2018-12-08T06:22:36.838Z,69.53
2018-12-08T06:25:11.902Z,69.75
2018-12-08T06:27:57.554Z,68.61
2018-12-08T06:30:28.225Z,70.51
2018-12-08T06:32:59.214Z,70.93
2018-12-08T06:35:29.786Z,70.66
2018-12-08T06:38:00.285Z,71.40
2018-12-08T06:40:31.327Z,71.14
2018-12-08T06:43:01.826Z,72.27
2018-12-08T06:45:32.395Z,72.81
2018-12-08T06:48:02.889Z,73.55
2018-12-08T06:50:33.581Z,73.58
2018-12-08T06:53:04.161Z,74.14
2018-12-08T06:55:34.706Z,74.24
2018-12-08T06:58:05.172Z,74.24
2018-12-08T07:00:35.796Z,74.79
2018-12-08T07:03:06.295Z,74.12
2018-12-08T07:05:36.905Z,74.26
2018-12-08T07:08:07.394Z,73.78
2018-12-08T07:10:37.880Z,74.49
2018-12-08T07:13:08.427Z,73.22
2018-12-08T07:15:38.960Z,72.29
2018-12-08T07:18:09.532Z,72.74
2018-12-08T07:20:39.997Z,72.45
2018-12-08T07:23:10.659Z,72.38
2018-12-08T07:25:41.262Z,70.20
2018-12-08T07:28:11.815Z,69.34
2018-12-08T07:30:42.486Z,68.51
2018-12-08T07:33:12.952Z,68.48
2018-12-08T07:35:43.542Z,67.94
2018-12-08T07:38:14.158Z,67.57
2018-12-08T07:40:44.737Z,67.70
2018-12-08T07:43:15.319Z,67.96
2018-12-08T07:45:45.857Z,67.44
2018-12-08T07:48:16.567Z,67.04
2018-12-08T07:50:47.160Z,66.71
2018-12-08T07:53:17.679Z,67.59
2018-12-08T07:55:48.255Z,68.75
2018-12-08T07:58:18.805Z,68.87
2018-12-08T08:00:49.355Z,69.20
2018-12-08T08:03:20.010Z,68.74
2018-12-08T08:05:50.591Z,67.64
2018-12-08T08:08:21.196Z,67.46
2018-12-08T08:10:51.850Z,68.23
2018-12-08T08:13:22.408Z,68.91
2018-12-08T08:15:53.200Z,68.36
2018-12-08T08:18:24.018Z,68.39
2018-12-08T08:20:54.589Z,67.68
2018-12-08T08:23:25.317Z,67.83
2018-12-08T08:25:55.875Z,67.64
2018-12-08T08:28:26.650Z,66.51
2018-12-08T08:30:57.206Z,67.99
2018-12-08T08:33:27.750Z,67.32
2018-12-08T08:35:58.482Z,67.95
2018-12-08T08:38:29.286Z,68.23
2018-12-08T08:41:00.175Z,68.09
2018-12-08T08:43:30.692Z,68.42
2018-12-08T08:46:01.267Z,68.60
2018-12-08T08:48:31.727Z,67.84
2018-12-08T08:51:02.282Z,68.48
2018-12-08T08:53:33.959Z,68.21
2018-12-08T08:56:04.613Z,68.49
2018-12-08T08:58:35.251Z,69.04
2018-12-08T09:01:05.865Z,68.96
2018-12-08T09:03:36.400Z,68.57
2018-12-08T09:06:07.054Z,67.67
2018-12-08T09:08:37.608Z,67.69
2018-12-08T09:11:10.318Z,68.29
2018-12-08T09:13:41.250Z,67.36
2018-12-08T09:16:11.895Z,67.10
2018-12-08T09:18:42.716Z,67.64
2018-12-08T09:21:13.438Z,67.40
2018-12-08T09:23:44.558Z,66.77
2018-12-08T09:26:16.148Z,65.52
2018-12-08T09:28:46.770Z,66.05
2018-12-08T09:31:18.744Z,65.01
2018-12-08T09:33:49.458Z,65.39
2018-12-08T09:36:19.963Z,64.63
2018-12-08T09:38:50.677Z,62.99
2018-12-08T09:41:22.257Z,63.10
2018-12-08T09:43:52.782Z,61.72
2018-12-08T09:46:23.388Z,60.80
2018-12-08T09:48:53.932Z,59.51
2018-12-08T09:51:24.493Z,59.26
2018-12-08T09:53:55.102Z,55.99
2018-12-08T09:56:25.898Z,54.33
2018-12-08T09:58:56.479Z,52.81
2018-12-08T10:01:27.257Z,47.90
2018-12-08T10:03:57.890Z,46.58
2018-12-08T10:06:28.477Z,45.40
2018-12-08T10:08:59.190Z,44.65
2018-12-08T10:11:29.780Z,43.57
2018-12-08T10:14:00.666Z,42.95
2018-12-08T10:16:31.294Z,44.26
2018-12-08T10:19:04.426Z,43.89
2018-12-08T10:21:37.978Z,44.13
2018-12-08T10:24:08.563Z,42.64
2018-12-08T10:26:39.101Z,42.07
2018-12-08T10:29:09.767Z,42.81
2018-12-08T10:31:40.306Z,46.10
2018-12-08T10:34:10.907Z,43.13
2018-12-08T10:36:41.489Z,43.52
2018-12-08T10:39:12.124Z,42.19
2018-12-08T10:41:42.859Z,41.85
2018-12-08T10:44:15.418Z,38.98
2018-12-08T10:46:46.020Z,40.05
2018-12-08T10:49:16.617Z,41.43
2018-12-08T10:51:47.315Z,40.02
2018-12-08T10:54:19.876Z,40.23
2018-12-08T10:56:50.443Z,40.92
2018-12-08T10:59:20.984Z,40.09
2018-12-08T11:01:59.020Z,41.26
2018-12-08T11:04:30.088Z,40.52
2018-12-08T11:07:00.618Z,39.33
2018-12-08T11:09:31.102Z,40.18
2018-12-08T11:12:01.705Z,40.41
2018-12-08T11:14:32.706Z,43.09
2018-12-08T11:17:03.278Z,42.10
2018-12-08T11:19:34.590Z,43.53
2018-12-08T11:22:05.211Z,39.51
2018-12-08T11:24:35.751Z,40.87
2018-12-08T11:27:06.346Z,46.36
2018-12-08T11:29:38.098Z,41.00
2018-12-08T11:32:08.632Z,40.20
2018-12-08T11:34:39.324Z,45.73
2018-12-08T11:37:09.873Z,43.86
2018-12-08T11:39:40.470Z,45.95
2018-12-08T11:42:10.978Z,46.03
2018-12-08T11:44:42.030Z,45.82
2018-12-08T11:47:12.627Z,46.40
2018-12-08T11:49:43.240Z,50.06
2018-12-08T11:52:13.839Z,50.66
2018-12-08T11:54:44.411Z,50.63
2018-12-08T11:57:16.215Z,52.69
2018-12-08T11:59:46.912Z,54.32
2018-12-08T12:02:17.452Z,54.05
2018-12-08T12:04:47.975Z,54.03
2018-12-08T12:07:18.449Z,54.70
2018-12-08T12:09:49.230Z,54.36
2018-12-08T12:12:19.755Z,55.73
2018-12-08T12:14:50.871Z,55.58
2018-12-08T12:17:21.409Z,56.07
2018-12-08T12:19:51.950Z,55.85
2018-12-08T12:22:22.571Z,56.69
2018-12-08T12:24:53.105Z,57.38
2018-12-08T12:27:23.740Z,56.12
2018-12-08T12:29:54.213Z,57.14
2018-12-08T12:32:24.680Z,56.96
2018-12-08T12:34:55.274Z,58.01
2018-12-08T12:37:25.768Z,58.39
2018-12-08T12:39:56.330Z,57.78
2018-12-08T12:42:26.903Z,57.89
2018-12-08T12:44:57.450Z,58.26
2018-12-08T12:47:28.090Z,58.52
2018-12-08T12:49:58.628Z,58.05
2018-12-08T12:52:29.138Z,58.33
2018-12-08T12:54:59.660Z,58.51
2018-12-08T12:57:30.197Z,58.94
2018-12-08T13:00:00.762Z,59.70
2018-12-08T13:02:33.291Z,58.75
2018-12-08T13:05:03.780Z,59.01
2018-12-08T13:07:34.327Z,59.18
2018-12-08T13:10:05.155Z,59.13
2018-12-08T13:12:35.675Z,59.63
2018-12-08T13:15:06.603Z,58.78
2018-12-08T13:17:37.118Z,59.00
2018-12-08T13:20:07.870Z,59.66
2018-12-08T13:22:38.353Z,60.03
2018-12-08T13:25:23.763Z,59.77
2018-12-08T13:27:54.405Z,60.04
2018-12-08T13:30:25.018Z,60.50
2018-12-08T13:32:55.568Z,60.72
2018-12-08T13:35:54.922Z,59.52
2018-12-08T13:38:25.485Z,60.59
2018-12-08T13:40:56.037Z,60.90
2018-12-08T13:43:26.599Z,60.94
2018-12-08T13:45:57.109Z,60.54
2018-12-08T13:48:29.343Z,60.55
2018-12-08T13:51:00.035Z,61.92
2018-12-08T13:53:36.698Z,61.98
2018-12-08T13:56:03.153Z,61.48
2018-12-08T13:58:33.670Z,61.18
2018-12-08T14:01:04.147Z,61.20
2018-12-08T14:03:34.645Z,60.01
2018-12-08T14:06:05.181Z,59.87
2018-12-08T14:08:35.675Z,60.36
2018-12-08T14:11:06.223Z,60.28
2018-12-08T14:13:36.772Z,60.72
2018-12-08T14:16:07.247Z,60.41
2018-12-08T14:18:37.737Z,60.35
2018-12-08T14:21:08.252Z,60.12
2018-12-08T14:23:38.790Z,59.09
2018-12-08T14:26:09.426Z,59.97
2018-12-08T14:28:40.160Z,60.97
2018-12-08T14:31:10.825Z,60.85
2018-12-08T14:33:41.333Z,60.75
2018-12-08T14:36:11.904Z,60.51
2018-12-08T14:38:42.438Z,60.89
2018-12-08T14:41:13.889Z,60.79
2018-12-08T14:43:44.468Z,61.22
2018-12-08T14:46:15.060Z,61.16
2018-12-08T14:48:45.578Z,60.45
2018-12-08T14:51:16.202Z,61.54
2018-12-08T14:53:46.786Z,61.21
2018-12-08T14:56:17.290Z,61.33
2018-12-08T14:58:47.921Z,62.11
2018-12-08T15:01:18.449Z,61.87
2018-12-08T15:03:49.042Z,61.39
2018-12-08T15:06:19.594Z,61.83
2018-12-08T15:08:50.132Z,62.22
2018-12-08T15:11:20.674Z,62.45
2018-12-08T15:13:51.230Z,62.47
2018-12-08T15:16:22.613Z,62.37
2018-12-08T15:18:53.135Z,63.08
2018-12-08T15:21:23.672Z,62.72
2018-12-08T15:23:54.232Z,61.55
2018-12-08T15:26:24.919Z,62.23
2018-12-08T15:28:55.474Z,62.01
2018-12-08T15:31:26.596Z,62.71
2018-12-08T15:33:57.173Z,62.70
2018-12-08T15:36:28.005Z,63.76
2018-12-08T15:38:58.512Z,64.02
2018-12-08T15:41:29.118Z,63.94
2018-12-08T15:44:00.738Z,63.85
2018-12-08T15:46:31.327Z,63.75
2018-12-08T15:49:01.813Z,64.04
2018-12-08T15:51:32.402Z,64.07
2018-12-08T15:54:02.922Z,64.15
2018-12-08T15:56:33.853Z,64.45
2018-12-08T15:59:04.384Z,64.40
2018-12-08T16:01:35.629Z,64.23
2018-12-08T16:04:06.100Z,64.80
2018-12-08T16:06:37.057Z,64.78
2018-12-08T16:09:07.830Z,65.43
2018-12-08T16:11:38.679Z,65.20
2018-12-08T16:14:09.554Z,65.86
2018-12-08T16:16:40.102Z,65.40
2018-12-08T16:54:06.403Z,48.42
2018-12-08T17:01:26.290Z,47.88
2018-12-08T17:03:57.628Z,51.45
2018-12-08T17:06:28.213Z,62.19
2018-12-08T17:08:58.839Z,63.40
2018-12-08T17:11:29.549Z,62.79
2018-12-08T17:14:00.097Z,63.50
2018-12-08T17:16:30.615Z,62.54
2018-12-08T17:19:01.160Z,62.54
2018-12-08T17:21:31.644Z,62.23
2018-12-08T17:24:02.254Z,62.84
2018-12-08T17:26:32.921Z,63.43
2018-12-08T17:29:03.576Z,62.95
2018-12-08T17:31:34.175Z,63.54
2018-12-08T17:34:04.856Z,63.10
2018-12-08T17:36:36.016Z,64.18
2018-12-08T17:39:09.307Z,63.80
2018-12-08T17:42:21.043Z,64.56
2018-12-08T17:44:51.743Z,64.69
2018-12-08T17:47:22.262Z,65.47
2018-12-08T17:49:52.875Z,66.51
2018-12-08T17:52:23.426Z,67.09
2018-12-08T17:54:53.954Z,67.22
2018-12-08T17:57:24.540Z,68.43
2018-12-08T18:00:03.428Z,69.06
2018-12-08T18:02:34.110Z,69.47
2018-12-08T18:05:04.790Z,68.93
2018-12-08T18:07:36.313Z,68.64
2018-12-08T18:10:08.367Z,69.42
2018-12-08T18:12:38.877Z,68.86
2018-12-08T18:15:09.380Z,68.33
2018-12-08T18:17:39.890Z,68.95
2018-12-08T18:20:10.453Z,69.36
2018-12-08T18:22:41.153Z,70.46
2018-12-08T18:25:11.860Z,70.26
2018-12-08T18:27:42.811Z,69.80
2018-12-08T18:30:13.332Z,70.83
2018-12-08T18:32:43.977Z,69.82
2018-12-08T18:35:14.530Z,69.81
2018-12-08T18:37:45.055Z,70.32
2018-12-08T18:40:15.661Z,70.70
2018-12-08T18:42:46.229Z,70.10
2018-12-08T18:45:16.724Z,70.69
2018-12-08T18:47:47.251Z,70.07
2018-12-08T18:50:17.964Z,70.45
2018-12-08T18:52:49.986Z,71.81
2018-12-08T18:55:20.518Z,71.87
2018-12-08T18:57:51.151Z,72.55
2018-12-08T19:00:21.965Z,73.28
2018-12-08T19:02:52.591Z,74.06
2018-12-08T19:05:29.858Z,75.24
2018-12-08T19:08:00.379Z,75.93
2018-12-08T19:10:30.863Z,75.98
2018-12-08T19:13:02.504Z,75.79
2018-12-08T19:15:33.047Z,76.32
2018-12-08T19:18:03.599Z,76.25
2018-12-08T19:20:34.140Z,76.61
2018-12-08T19:23:04.677Z,76.94
2018-12-08T19:25:35.358Z,76.72
2018-12-08T19:28:05.897Z,77.52
2018-12-08T19:30:36.418Z,77.72
2018-12-08T19:33:14.363Z,77.52
2018-12-08T19:35:41.658Z,78.25
2018-12-08T19:38:12.411Z,78.20
2018-12-08T19:40:42.897Z,77.88
2018-12-08T19:43:13.410Z,78.39
2018-12-08T19:45:44.099Z,78.55
2018-12-08T19:48:14.727Z,78.41
2018-12-08T19:50:45.286Z,78.19
2018-12-08T19:53:15.895Z,78.01
2018-12-08T19:55:46.403Z,78.03
2018-12-08T19:58:17.073Z,78.21
2018-12-08T20:00:47.559Z,78.04
2018-12-08T20:03:18.200Z,78.71
2018-12-08T20:05:49.062Z,79.17
2018-12-08T20:08:20.835Z,78.45
2018-12-08T20:10:51.762Z,79.03
2018-12-08T20:13:23.235Z,79.31
2018-12-08T20:15:56.083Z,78.69
2018-12-08T20:18:27.487Z,78.79
2018-12-08T20:20:58.500Z,78.82
2018-12-08T20:23:30.774Z,79.15
2018-12-08T20:26:01.609Z,78.63
2018-12-08T20:28:32.579Z,78.28
2018-12-08T20:31:03.235Z,78.07
2018-12-08T20:33:33.793Z,77.99
2018-12-08T20:36:05.322Z,77.76
2018-12-08T20:38:35.862Z,78.09
2018-12-08T20:41:06.529Z,77.28
2018-12-08T20:43:37.322Z,76.77
2018-12-08T20:46:08.210Z,77.47
2018-12-08T20:48:39.215Z,76.67
2018-12-08T20:51:09.996Z,76.39
2018-12-08T20:53:40.765Z,76.86
2018-12-08T20:56:11.340Z,76.30
2018-12-08T20:58:41.987Z,76.40
2018-12-08T21:01:12.600Z,76.77
2018-12-08T21:03:43.281Z,76.60
2018-12-08T21:06:13.958Z,76.63
2018-12-08T21:08:44.476Z,76.35
2018-12-08T21:11:15.113Z,76.53
2018-12-08T21:13:46.844Z,76.55
2018-12-08T21:16:17.418Z,76.62
2018-12-08T21:18:47.985Z,76.58
2018-12-08T21:21:18.654Z,75.76
2018-12-08T21:23:49.184Z,75.70
2018-12-08T21:26:19.766Z,76.06
2018-12-08T21:28:50.457Z,75.06
2018-12-08T21:31:21.033Z,75.54
2018-12-08T21:33:51.674Z,75.37
2018-12-08T21:36:22.238Z,75.26
2018-12-08T21:38:52.852Z,76.19
2018-12-08T21:41:23.418Z,75.97
2018-12-08T21:43:53.994Z,75.75
2018-12-08T21:46:24.670Z,74.99
2018-12-08T21:48:55.545Z,75.10
2018-12-08T21:51:26.132Z,76.07
2018-12-08T21:53:56.842Z,75.89
2018-12-08T21:56:27.440Z,76.51
2018-12-08T21:58:58.119Z,75.67
2018-12-08T22:01:28.745Z,76.19
2018-12-08T22:03:59.373Z,75.73
2018-12-08T22:06:31.918Z,75.67
2018-12-08T22:09:02.900Z,75.19
2018-12-08T22:11:48.605Z,75.84
2018-12-08T22:14:19.498Z,75.45
2018-12-08T22:16:50.247Z,75.38
2018-12-08T22:19:21.576Z,74.99
2018-12-08T22:21:52.301Z,75.27
2018-12-08T22:24:23.174Z,74.86
2018-12-08T22:26:55.417Z,74.37
2018-12-08T22:29:29.044Z,75.32
2018-12-08T22:32:00.692Z,74.84
2018-12-08T22:34:31.534Z,74.71
2018-12-08T22:37:02.074Z,74.45
2018-12-08T22:39:32.626Z,74.49
2018-12-08T22:42:03.115Z,75.77
2018-12-08T22:44:33.637Z,75.58
2018-12-08T22:47:04.135Z,75.85
2018-12-08T22:49:34.655Z,75.09
2018-12-08T22:52:05.196Z,76.03
2018-12-08T22:54:35.703Z,75.88
2018-12-08T22:57:06.242Z,76.37
2018-12-08T22:59:36.889Z,76.47
2018-12-08T23:02:07.634Z,76.61
2018-12-08T23:04:38.193Z,76.71
2018-12-08T23:07:08.973Z,76.08
2018-12-08T23:09:39.701Z,76.36
2018-12-08T23:12:10.204Z,76.51
2018-12-08T23:14:40.962Z,76.57
2018-12-08T23:17:11.450Z,76.46
2018-12-08T23:19:42.070Z,76.37
2018-12-08T23:22:12.540Z,76.56
2018-12-08T23:24:43.495Z,77.36
2018-12-08T23:27:14.138Z,77.34
2018-12-08T23:29:44.738Z,76.77
2018-12-08T23:32:15.274Z,77.10
2018-12-08T23:34:45.792Z,76.57
2018-12-08T23:37:16.333Z,76.61
2018-12-08T23:39:46.846Z,76.32
2018-12-08T23:42:17.520Z,75.62
2018-12-08T23:44:48.060Z,75.83
2018-12-08T23:47:18.567Z,76.06
2018-12-08T23:49:49.110Z,74.91
2018-12-08T23:52:20.509Z,75.61
2018-12-08T23:54:51.011Z,74.66
2018-12-08T23:57:21.514Z,74.76
2018-12-08T23:59:52.001Z,74.42
